createdAt,value
2019-06-25T00:01:44.380Z,5.07
2019-06-25T00:04:12.270Z,4.67
2019-06-25T00:06:40.150Z,4.47
2019-06-25T00:09:07.997Z,4.53
2019-06-25T00:11:36.764Z,4.57
2019-06-25T00:14:04.703Z,7.27
2019-06-25T00:16:32.548Z,4.67
2019-06-25T00:19:00.434Z,6.97
2019-06-25T00:21:28.379Z,4.60
2019-06-25T00:23:56.270Z,4.80
2019-06-25T00:26:24.179Z,4.80
2019-06-25T00:28:52.059Z,5.00
2019-06-25T00:31:19.935Z,4.80
2019-06-25T00:33:47.819Z,5.23
2019-06-25T00:36:15.736Z,4.77
2019-06-25T00:38:43.615Z,5.23
2019-06-25T00:41:11.582Z,4.70
2019-06-25T00:43:39.494Z,5.57
2019-06-25T00:46:07.487Z,5.43
2019-06-25T00:48:35.415Z,5.40
2019-06-25T00:51:03.281Z,5.37
2019-06-25T00:53:31.161Z,5.33
2019-06-25T00:55:59.067Z,5.03
2019-06-25T00:58:26.929Z,5.00
2019-06-25T01:00:54.842Z,5.23
2019-06-25T01:03:28.213Z,4.33
2019-06-25T01:05:56.048Z,4.87
2019-06-25T01:08:23.974Z,5.40
2019-06-25T01:10:51.847Z,5.70
2019-06-25T01:13:19.802Z,4.80
2019-06-25T01:15:47.704Z,4.80
2019-06-25T01:18:15.608Z,5.17
2019-06-25T01:20:43.535Z,5.00
2019-06-25T01:23:11.409Z,5.10
2019-06-25T01:25:39.273Z,5.03
2019-06-25T01:28:07.197Z,4.67
2019-06-25T01:30:35.048Z,5.30
2019-06-25T01:33:02.943Z,5.00
2019-06-25T01:35:30.854Z,4.93
2019-06-25T01:37:58.694Z,5.93
2019-06-25T01:40:26.582Z,5.57
2019-06-25T01:42:54.450Z,5.20
2019-06-25T01:45:22.375Z,5.07
2019-06-25T01:47:50.233Z,5.83
2019-06-25T01:50:18.240Z,5.47
2019-06-25T01:52:46.105Z,5.20
2019-06-25T01:55:13.996Z,5.80
2019-06-25T01:57:41.872Z,5.07
2019-06-25T02:00:09.865Z,5.53
2019-06-25T02:02:37.789Z,5.20
2019-06-25T02:05:06.326Z,5.20
2019-06-25T02:07:34.245Z,5.50
2019-06-25T02:10:02.133Z,5.43
2019-06-25T02:12:30.185Z,6.00
2019-06-25T02:14:58.227Z,5.00
2019-06-25T02:17:26.111Z,5.70
2019-06-25T02:19:54.027Z,5.60
2019-06-25T02:22:21.987Z,5.83
2019-06-25T02:24:49.854Z,6.00
2019-06-25T02:27:17.725Z,5.83
2019-06-25T02:29:45.642Z,5.60
2019-06-25T02:32:13.530Z,5.40
2019-06-25T02:34:41.396Z,6.50
2019-06-25T02:37:09.416Z,6.23
2019-06-25T02:39:37.313Z,6.70
2019-06-25T02:42:05.205Z,6.37
2019-06-25T02:44:33.226Z,6.33
2019-06-25T02:47:01.241Z,6.37
2019-06-25T02:49:29.115Z,5.73
2019-06-25T02:51:57.021Z,5.83
2019-06-25T02:54:24.933Z,5.63
2019-06-25T02:56:52.875Z,6.40
2019-06-25T02:59:20.792Z,5.77
2019-06-25T03:01:48.683Z,5.80
2019-06-25T03:04:16.581Z,5.57
2019-06-25T03:06:44.528Z,5.90
2019-06-25T03:09:12.452Z,5.87
2019-06-25T03:11:40.339Z,6.60
2019-06-25T03:14:08.448Z,6.20
2019-06-25T03:16:36.290Z,5.80
2019-06-25T03:19:04.274Z,5.53
2019-06-25T03:21:32.192Z,6.10
2019-06-25T03:24:00.206Z,6.03
2019-06-25T03:26:28.140Z,6.63
2019-06-25T03:28:56.059Z,6.10
2019-06-25T03:31:23.978Z,6.93
2019-06-25T03:33:51.850Z,5.87
2019-06-25T03:36:19.799Z,6.07
2019-06-25T03:38:47.834Z,6.50
2019-06-25T03:41:15.786Z,6.33
2019-06-25T03:43:43.656Z,6.87
2019-06-25T03:46:11.731Z,6.67
2019-06-25T03:48:39.700Z,6.53
2019-06-25T03:51:07.608Z,6.13
2019-06-25T03:53:35.566Z,6.40
2019-06-25T03:56:03.458Z,6.00
2019-06-25T03:58:31.381Z,6.30
2019-06-25T04:00:59.310Z,6.13
2019-06-25T04:03:27.232Z,5.63
2019-06-25T04:05:55.170Z,6.27
2019-06-25T04:08:24.057Z,6.37
2019-06-25T04:10:52.073Z,7.03
2019-06-25T04:13:20.159Z,6.20
2019-06-25T04:15:50.892Z,5.80
2019-06-25T04:18:18.869Z,6.60
2019-06-25T04:20:46.791Z,7.13
2019-06-25T04:23:14.703Z,6.70
2019-06-25T04:25:42.593Z,6.27
2019-06-25T04:28:10.525Z,6.40
2019-06-25T04:30:38.425Z,5.73
2019-06-25T04:33:06.334Z,5.77
2019-06-25T04:35:34.284Z,6.00
2019-06-25T04:38:02.239Z,5.77
2019-06-25T04:40:30.150Z,7.07
2019-06-25T04:42:58.054Z,6.00
2019-06-25T04:45:26.031Z,6.17
2019-06-25T04:47:54.058Z,5.63
2019-06-25T04:50:21.935Z,5.90
2019-06-25T04:52:49.937Z,5.90
2019-06-25T04:55:17.982Z,5.80
2019-06-25T04:57:45.923Z,5.70
2019-06-25T05:00:14.148Z,6.13
2019-06-25T05:02:49.757Z,6.30
2019-06-25T05:05:12.026Z,5.30
2019-06-25T05:07:39.903Z,5.50
2019-06-25T05:10:08.116Z,5.63
2019-06-25T05:12:36.122Z,5.90
2019-06-25T05:15:06.254Z,5.30
2019-06-25T05:17:34.175Z,5.30
2019-06-25T05:20:02.125Z,5.70
2019-06-25T05:22:30.012Z,6.07
2019-06-25T05:24:57.945Z,5.40
2019-06-25T05:27:25.869Z,5.63
2019-06-25T05:29:53.777Z,12.50
2019-06-25T05:32:21.700Z,7.07
2019-06-25T05:34:49.929Z,6.40
2019-06-25T05:37:24.724Z,5.80
2019-06-25T05:39:52.750Z,5.10
2019-06-25T05:42:20.638Z,5.20
2019-06-25T05:44:48.566Z,5.50
2019-06-25T05:47:16.483Z,5.43
2019-06-25T05:49:44.389Z,7.00
2019-06-25T05:52:12.336Z,6.40
2019-06-25T05:54:40.362Z,5.23
2019-06-25T05:57:08.403Z,5.40
2019-06-25T05:59:37.172Z,5.00
2019-06-25T06:02:05.295Z,4.93
2019-06-25T06:04:33.278Z,5.30
2019-06-25T06:07:01.163Z,5.13
2019-06-25T06:09:29.419Z,4.70
2019-06-25T06:12:00.206Z,5.40
2019-06-25T06:14:28.145Z,5.43
2019-06-25T06:16:58.443Z,5.00
2019-06-25T06:19:26.335Z,5.90
2019-06-25T06:21:54.353Z,5.37
2019-06-25T06:24:22.331Z,5.30
2019-06-25T06:26:50.234Z,4.73
2019-06-25T06:29:18.199Z,4.90
2019-06-25T06:31:46.295Z,5.43
2019-06-25T06:34:14.401Z,4.43
2019-06-25T06:36:43.902Z,5.23
2019-06-25T06:39:13.602Z,4.77
2019-06-25T06:41:41.435Z,4.40
2019-06-25T06:44:09.360Z,5.03
2019-06-25T06:46:37.319Z,4.60
2019-06-25T06:49:05.337Z,6.03
2019-06-25T06:51:42.004Z,4.43
2019-06-25T06:54:11.071Z,4.37
2019-06-25T06:56:39.449Z,4.50
2019-06-25T06:59:07.321Z,4.90
2019-06-25T07:01:35.304Z,4.83
2019-06-25T07:04:07.276Z,4.80
2019-06-25T07:06:35.338Z,4.97
2019-06-25T07:09:03.578Z,5.23
2019-06-25T07:11:31.622Z,5.90
2019-06-25T07:13:59.545Z,4.70
2019-06-25T07:16:27.967Z,4.60
2019-06-25T07:18:56.083Z,5.20
2019-06-25T07:21:25.054Z,5.13
2019-06-25T07:23:53.030Z,4.73
2019-06-25T07:26:21.621Z,5.23
2019-06-25T07:28:49.500Z,4.53
2019-06-25T07:31:19.281Z,4.93
2019-06-25T07:33:47.196Z,4.73
2019-06-25T07:36:15.341Z,5.10
2019-06-25T07:38:43.251Z,5.23
2019-06-25T07:41:11.142Z,6.03
2019-06-25T07:43:38.994Z,4.40
2019-06-25T07:46:07.047Z,5.80
2019-06-25T07:48:35.007Z,5.70
2019-06-25T07:51:03.923Z,5.20
2019-06-25T07:53:31.918Z,5.10
2019-06-25T07:55:59.813Z,5.83
2019-06-25T07:58:27.753Z,6.60
2019-06-25T08:00:55.632Z,6.23
2019-06-25T08:03:23.584Z,5.87
2019-06-25T08:05:51.510Z,5.57
2019-06-25T08:08:19.418Z,6.17
2019-06-25T08:10:47.319Z,5.37
2019-06-25T08:13:15.283Z,4.60
2019-06-25T08:15:43.226Z,5.10
2019-06-25T08:18:11.103Z,6.43
2019-06-25T08:20:38.993Z,5.87
2019-06-25T08:23:07.125Z,5.20
2019-06-25T08:25:35.025Z,4.30
2019-06-25T08:28:02.932Z,5.70
2019-06-25T08:30:30.866Z,5.03
2019-06-25T08:32:58.805Z,5.30
2019-06-25T08:35:26.719Z,7.83
2019-06-25T08:37:54.575Z,5.77
2019-06-25T08:40:22.497Z,5.27
2019-06-25T08:42:50.393Z,5.33
2019-06-25T08:45:21.244Z,4.83
2019-06-25T08:47:49.242Z,5.10
2019-06-25T08:50:17.163Z,5.70
2019-06-25T08:52:57.454Z,6.17
2019-06-25T08:55:14.863Z,4.63
2019-06-25T08:57:42.778Z,5.60
2019-06-25T09:00:11.128Z,5.63
2019-06-25T09:02:39.161Z,4.90
2019-06-25T09:05:07.647Z,5.43
2019-06-25T09:07:35.798Z,5.67
2019-06-25T09:10:03.803Z,5.90
2019-06-25T09:12:31.683Z,5.20
2019-06-25T09:14:59.610Z,5.77
2019-06-25T09:17:27.574Z,4.90
2019-06-25T09:19:55.844Z,5.97
2019-06-25T09:22:23.763Z,5.40
2019-06-25T09:24:51.680Z,4.97
2019-06-25T09:27:19.791Z,5.47
2019-06-25T09:29:47.757Z,5.93
2019-06-25T09:32:15.722Z,4.60
2019-06-25T09:41:14.285Z,4.20
2019-06-25T09:43:41.345Z,4.63
2019-06-25T09:46:09.593Z,4.47
2019-06-25T09:48:38.483Z,6.30
2019-06-25T09:51:06.397Z,4.70
2019-06-25T09:53:34.335Z,5.43
2019-06-25T09:56:02.295Z,4.73
2019-06-25T09:58:30.226Z,4.70
2019-06-25T10:00:58.468Z,5.30
2019-06-25T10:03:26.818Z,5.43
2019-06-25T10:05:54.810Z,5.00
2019-06-25T10:08:22.770Z,4.70
2019-06-25T10:10:50.665Z,4.90
2019-06-25T10:13:18.553Z,5.87
2019-06-25T10:15:46.515Z,4.67
2019-06-25T10:18:14.496Z,4.63
2019-06-25T10:20:42.423Z,4.73
2019-06-25T10:23:10.326Z,4.43
2019-06-25T10:25:38.231Z,5.20
2019-06-25T10:28:06.252Z,5.27
2019-06-25T10:30:41.009Z,4.60
2019-06-25T10:33:08.974Z,4.63
2019-06-25T10:35:46.870Z,4.27
2019-06-25T10:39:10.483Z,4.40
2019-06-25T10:41:24.944Z,4.80
2019-06-25T10:44:18.911Z,4.20
2019-06-25T10:46:44.332Z,4.83
2019-06-25T10:49:12.226Z,4.10
2019-06-25T10:51:50.896Z,4.67
2019-06-25T10:54:19.010Z,4.13
2019-06-25T10:56:47.088Z,4.57
2019-06-25T10:59:17.157Z,4.63
2019-06-25T11:01:45.125Z,5.27
2019-06-25T11:04:13.086Z,4.70
2019-06-25T11:06:56.585Z,4.40
2019-06-25T11:09:11.039Z,4.73
2019-06-25T11:11:52.598Z,5.20
2019-06-25T11:14:20.202Z,4.47
2019-06-25T11:16:48.139Z,4.70
2019-06-25T11:19:16.256Z,4.47
2019-06-25T11:21:44.357Z,4.90
2019-06-25T11:24:12.374Z,4.20
2019-06-25T11:26:57.247Z,4.20
2019-06-25T11:29:22.669Z,4.40
2019-06-25T11:31:50.706Z,4.80
2019-06-25T11:34:18.839Z,4.70
2019-06-25T11:36:46.843Z,4.97
2019-06-25T11:39:14.970Z,4.90
2019-06-25T11:41:58.571Z,5.23
2019-06-25T11:44:23.794Z,4.57
2019-06-25T11:46:51.734Z,4.77
2019-06-25T11:49:19.616Z,4.80
2019-06-25T11:51:47.564Z,4.50
2019-06-25T11:54:15.546Z,4.27
2019-06-25T11:56:43.481Z,4.90
2019-06-25T11:59:11.411Z,4.70
2019-06-25T12:01:39.371Z,7.97
2019-06-25T12:04:07.324Z,5.10
2019-06-25T12:06:52.778Z,5.13
2019-06-25T12:09:06.406Z,5.27
2019-06-25T12:11:36.611Z,5.27
2019-06-25T12:14:04.462Z,5.27
2019-06-25T12:16:32.401Z,5.10
2019-06-25T12:19:00.343Z,4.53
2019-06-25T12:21:44.805Z,4.03
2019-06-25T12:24:40.090Z,4.70
2019-06-25T12:27:34.405Z,4.20
2019-06-25T12:33:02.871Z,5.07
2019-06-25T12:35:30.854Z,4.80
2019-06-25T12:37:59.002Z,5.07
2019-06-25T12:40:26.981Z,5.17
2019-06-25T12:46:09.189Z,4.23
2019-06-25T12:48:37.090Z,4.63
2019-06-25T12:51:04.985Z,5.00
2019-06-25T12:56:42.163Z,4.60
2019-06-25T12:59:10.064Z,4.20
2019-06-25T13:01:47.700Z,4.53
2019-06-25T13:04:12.937Z,4.50
2019-06-25T13:06:40.885Z,4.70
2019-06-25T13:09:08.832Z,4.07
2019-06-25T13:11:50.684Z,4.50
2019-06-25T13:14:18.583Z,5.37
2019-06-25T13:16:46.455Z,4.10
2019-06-25T14:08:05.433Z,4.00
2019-06-25T14:13:50.952Z,4.60
2019-06-25T14:14:17.754Z,4.37
2019-06-25T14:16:42.299Z,4.37
2019-06-25T14:19:20.859Z,4.70
2019-06-25T14:22:23.159Z,4.30
2019-06-25T14:24:53.792Z,7.70
2019-06-25T14:30:41.876Z,4.97
2019-06-25T14:33:23.023Z,4.80
2019-06-25T14:36:08.649Z,4.43
2019-06-25T14:38:56.733Z,4.27
2019-06-25T14:44:26.445Z,4.93
2019-06-25T14:47:24.762Z,5.10
2019-06-25T14:50:01.153Z,5.00
2019-06-25T14:53:15.023Z,4.80
2019-06-25T14:55:35.678Z,4.87
2019-06-25T14:58:19.704Z,4.70
2019-06-25T15:00:57.400Z,4.97
2019-06-25T15:03:36.876Z,4.97
2019-06-25T15:06:07.566Z,5.47
2019-06-25T15:08:35.580Z,6.27
2019-06-25T15:11:15.624Z,5.30
2019-06-25T15:13:45.489Z,5.70
2019-06-25T15:16:21.589Z,5.33
2019-06-25T15:19:02.150Z,5.50
2019-06-25T15:21:46.349Z,6.23
2019-06-25T15:24:13.088Z,5.70
2019-06-25T15:26:45.076Z,5.37
2019-06-25T15:29:19.622Z,5.10
2019-06-25T15:32:12.276Z,6.00
2019-06-25T15:34:57.490Z,5.83
2019-06-25T15:37:18.026Z,6.33
2019-06-25T15:39:48.589Z,6.90
2019-06-25T15:42:18.098Z,5.67
2019-06-25T15:44:54.836Z,5.83
2019-06-25T15:47:28.017Z,6.50
2019-06-25T15:50:00.206Z,6.17
2019-06-25T15:52:32.732Z,5.80
2019-06-25T15:55:06.293Z,5.90
2019-06-25T15:57:35.148Z,5.73
2019-06-25T16:00:09.663Z,5.30
2019-06-25T16:02:45.149Z,6.00
2019-06-25T16:05:13.244Z,6.17
2019-06-25T16:07:41.188Z,6.20
2019-06-25T16:10:09.244Z,6.47
2019-06-25T16:12:37.138Z,5.93
2019-06-25T16:15:05.204Z,6.80
2019-06-25T16:17:33.076Z,5.90
2019-06-25T16:20:01.039Z,6.20
2019-06-25T16:22:29.009Z,7.00
2019-06-25T16:24:57.044Z,7.10
2019-06-25T16:27:24.930Z,6.57
2019-06-25T16:29:52.815Z,6.20
2019-06-25T16:32:20.755Z,6.80
2019-06-25T16:34:48.726Z,5.87
2019-06-25T16:37:19.854Z,5.73
2019-06-25T16:39:46.284Z,6.67
2019-06-25T16:42:14.307Z,7.07
2019-06-25T16:44:42.337Z,6.57
2019-06-25T16:47:10.216Z,7.93
2019-06-25T16:49:38.075Z,7.10
2019-06-25T16:52:06.126Z,6.93
2019-06-25T16:54:34.040Z,6.30
2019-06-25T16:57:01.951Z,6.03
2019-06-25T16:59:29.918Z,6.53
2019-06-25T17:01:58.378Z,7.27
2019-06-25T17:04:26.656Z,6.87
2019-06-25T17:06:54.533Z,6.90
2019-06-25T17:09:34.489Z,6.30
2019-06-25T17:11:52.007Z,7.00
2019-06-25T17:14:19.965Z,6.60
2019-06-25T17:16:47.908Z,7.30
2019-06-25T17:19:16.539Z,7.23
2019-06-25T17:21:44.619Z,7.30
2019-06-25T17:24:12.541Z,6.60
2019-06-25T17:26:40.409Z,6.77
2019-06-25T17:29:08.297Z,8.60
2019-06-25T17:31:36.222Z,6.90
2019-06-25T17:34:04.072Z,7.97
2019-06-25T17:36:32.110Z,6.93
2019-06-25T17:39:00.056Z,8.07
2019-06-25T17:41:27.973Z,7.63
2019-06-25T17:43:55.866Z,7.00
2019-06-25T17:46:23.858Z,7.03
2019-06-25T17:48:51.789Z,7.37
2019-06-25T17:51:19.651Z,7.67
2019-06-25T17:53:47.558Z,7.87
2019-06-25T17:56:15.431Z,7.60
2019-06-25T17:58:43.667Z,7.67
2019-06-25T18:01:11.561Z,7.13
2019-06-25T18:03:39.419Z,7.43
2019-06-25T18:06:07.327Z,7.37
2019-06-25T18:08:35.263Z,7.47
2019-06-25T18:11:03.174Z,7.87
2019-06-25T18:13:31.094Z,6.20
2019-06-25T18:15:59.129Z,7.50
2019-06-25T18:18:27.003Z,8.70
2019-06-25T18:20:54.894Z,6.90
2019-06-25T18:23:22.781Z,6.90
2019-06-25T18:25:50.632Z,7.90
2019-06-25T18:28:18.577Z,7.60
2019-06-25T18:30:46.488Z,7.27
2019-06-25T18:33:14.360Z,6.43
2019-06-25T18:35:42.318Z,6.50
2019-06-25T18:38:10.283Z,7.00
2019-06-25T18:40:38.172Z,7.43
2019-06-25T18:43:06.116Z,6.67
2019-06-25T18:45:33.982Z,7.17
2019-06-25T18:48:01.906Z,7.27
2019-06-25T18:50:29.756Z,7.27
2019-06-25T18:52:57.705Z,7.60
2019-06-25T18:55:25.629Z,6.43
2019-06-25T18:57:53.544Z,6.53
2019-06-25T19:00:21.721Z,6.53
2019-06-25T19:02:49.590Z,7.10
2019-06-25T19:05:17.490Z,6.77
2019-06-25T19:07:45.402Z,8.73
2019-06-25T19:10:13.352Z,10.97
2019-06-25T19:12:42.137Z,7.50
2019-06-25T19:15:10.410Z,7.90
2019-06-25T19:17:38.303Z,7.20
2019-06-25T19:20:06.580Z,8.03
2019-06-25T19:22:34.457Z,7.50
2019-06-25T19:25:02.428Z,6.93
2019-06-25T19:27:30.749Z,7.60
2019-06-25T19:29:58.633Z,7.00
2019-06-25T19:32:26.521Z,7.53
2019-06-25T19:34:54.416Z,7.40
2019-06-25T19:37:22.473Z,8.03
2019-06-25T19:39:50.364Z,8.77
2019-06-25T19:42:18.333Z,7.80
2019-06-25T19:44:46.351Z,7.10
2019-06-25T19:47:14.272Z,7.20
2019-06-25T19:49:42.149Z,6.93
2019-06-25T19:52:10.084Z,9.47
2019-06-25T19:54:38.093Z,7.33
2019-06-25T19:57:05.988Z,7.23
2019-06-25T19:59:33.971Z,7.43
2019-06-25T20:02:01.858Z,7.37
2019-06-25T20:04:29.774Z,7.60
2019-06-25T20:06:57.703Z,7.00
2019-06-25T20:09:25.550Z,7.50
2019-06-25T20:11:53.407Z,6.50
2019-06-25T20:14:21.421Z,7.53
2019-06-25T20:16:49.310Z,7.27
2019-06-25T20:19:17.188Z,7.40
2019-06-25T20:21:45.118Z,7.80
2019-06-25T20:24:13.235Z,6.70
2019-06-25T20:26:41.214Z,7.37
2019-06-25T20:29:09.112Z,6.87
2019-06-25T20:31:37.020Z,7.57
2019-06-25T20:34:05.015Z,7.90
2019-06-25T20:36:33.043Z,8.20
2019-06-25T20:39:00.983Z,8.07
2019-06-25T20:41:29.400Z,8.10
2019-06-25T20:43:57.541Z,7.70
2019-06-25T20:46:25.493Z,7.50
2019-06-25T20:48:53.693Z,8.20
2019-06-25T20:51:21.827Z,9.13
2019-06-25T20:53:49.814Z,10.60
2019-06-25T20:56:17.769Z,8.00
2019-06-25T20:58:45.633Z,8.10
2019-06-25T21:01:15.653Z,8.03
2019-06-25T21:03:43.544Z,8.47
2019-06-25T21:06:11.547Z,8.50
2019-06-25T21:08:39.434Z,8.57
2019-06-25T21:11:07.335Z,8.00
2019-06-25T21:13:35.266Z,7.97
2019-06-25T21:16:03.505Z,8.20
2019-06-25T21:18:32.649Z,8.00
2019-06-25T21:21:00.823Z,8.97
2019-06-25T21:23:28.719Z,8.70
2019-06-25T21:25:56.607Z,8.20
2019-06-25T21:28:24.508Z,8.67
2019-06-25T21:30:52.421Z,8.70
2019-06-25T21:33:20.291Z,8.83
2019-06-25T21:35:48.202Z,9.17
2019-06-25T21:38:16.134Z,9.33
2019-06-25T21:40:44.023Z,11.50
2019-06-25T21:43:11.892Z,8.40
2019-06-25T21:45:39.917Z,8.53
2019-06-25T21:48:07.882Z,8.40
2019-06-25T21:50:35.832Z,9.20
2019-06-25T21:53:03.775Z,9.23
2019-06-25T21:55:31.690Z,8.37
2019-06-25T21:57:59.574Z,8.87
2019-06-25T22:00:29.076Z,9.00
2019-06-25T22:02:57.325Z,9.20
2019-06-25T22:05:25.308Z,10.97
2019-06-25T22:07:53.211Z,8.80
2019-06-25T22:10:21.423Z,9.83
2019-06-25T22:12:49.321Z,10.10
2019-06-25T22:15:17.613Z,9.70
2019-06-25T22:17:45.659Z,10.17
2019-06-25T22:20:14.763Z,10.10
2019-06-25T22:22:42.656Z,10.30
2019-06-25T22:25:10.680Z,9.80
2019-06-25T22:27:38.575Z,11.70
2019-06-25T22:30:06.561Z,11.43
2019-06-25T22:32:34.452Z,10.00
2019-06-25T22:35:02.368Z,10.33
2019-06-25T22:37:30.280Z,10.10
2019-06-25T22:39:58.171Z,11.33
2019-06-25T22:42:36.668Z,12.17
2019-06-25T22:44:56.970Z,11.40
2019-06-25T22:47:25.149Z,10.53
2019-06-25T22:49:53.010Z,11.57
2019-06-25T22:52:20.980Z,10.87
2019-06-25T22:54:48.898Z,11.20
2019-06-25T22:57:16.787Z,10.43
2019-06-25T22:59:44.771Z,11.10
2019-06-25T23:02:12.805Z,12.40
2019-06-25T23:04:41.107Z,12.00
2019-06-25T23:07:09.478Z,10.87
2019-06-25T23:09:38.101Z,12.10
2019-06-25T23:12:06.222Z,13.13
2019-06-25T23:14:34.171Z,11.40
2019-06-25T23:17:02.167Z,12.87
2019-06-25T23:19:30.046Z,12.20
2019-06-25T23:21:58.004Z,12.90
2019-06-25T23:24:26.049Z,11.90
2019-06-25T23:26:53.980Z,12.30
2019-06-25T23:29:21.885Z,12.60
2019-06-25T23:31:49.811Z,12.63
2019-06-25T23:34:17.686Z,12.50
2019-06-25T23:36:45.642Z,12.30
2019-06-25T23:39:13.560Z,12.50
2019-06-25T23:41:41.465Z,12.20
2019-06-25T23:44:10.365Z,13.63
2019-06-25T23:46:38.471Z,11.90
2019-06-25T23:49:06.373Z,11.80
2019-06-25T23:51:34.262Z,12.97
2019-06-25T23:54:02.228Z,13.30
2019-06-25T23:56:30.216Z,11.80
2019-06-25T23:58:58.198Z,12.43
